createdAt,value
2018-09-27T00:00:09.662Z,1037.86024291
2018-09-27T00:00:22.536Z,1037.86024291
2018-09-27T00:00:35.577Z,1037.86024291
2018-09-27T00:00:48.634Z,1037.86024291
2018-09-27T00:01:01.668Z,1037.86024291
2018-09-27T00:01:14.551Z,1037.86024291
2018-09-27T00:01:27.456Z,1037.86024291
2018-09-27T00:01:40.386Z,1037.86024291
2018-09-27T00:01:53.280Z,1037.86024291
2018-09-27T00:02:06.200Z,1037.86024291
2018-09-27T00:02:19.097Z,1037.86024291
2018-09-27T00:02:32.055Z,1037.86024291
2018-09-27T00:02:44.970Z,1037.86024291
2018-09-27T00:02:57.860Z,1037.86024291
2018-09-27T00:03:10.725Z,1037.79251515
2018-09-27T00:03:23.530Z,1037.79251515
2018-09-27T00:03:36.334Z,1037.79251515
2018-09-27T00:03:49.349Z,1037.79251515
2018-09-27T00:04:02.180Z,1037.79251515
2018-09-27T00:04:14.990Z,1037.86024291
2018-09-27T00:04:27.794Z,1037.86024291
2018-09-27T00:04:40.621Z,1037.86024291
2018-09-27T00:04:53.442Z,1037.86024291
2018-09-27T00:05:06.269Z,1037.86024291
2018-09-27T00:05:19.122Z,1037.86024291
2018-09-27T00:05:32.024Z,1037.86024291
2018-09-27T00:05:44.856Z,1037.86024291
2018-09-27T00:05:57.676Z,1037.86024291
2018-09-27T00:06:10.510Z,1037.92797068
2018-09-27T00:06:23.323Z,1037.92797068
2018-09-27T00:06:36.169Z,1037.92797068
2018-09-27T00:06:48.992Z,1037.92797068
2018-09-27T00:07:01.816Z,1037.92797068
2018-09-27T00:07:14.664Z,1037.86024291
2018-09-27T00:07:27.494Z,1037.86024291
2018-09-27T00:07:40.328Z,1037.86024291
2018-09-27T00:07:53.197Z,1037.86024291
2018-09-27T00:08:06.039Z,1037.82637903
2018-09-27T00:08:18.911Z,1037.82637903
2018-09-27T00:08:31.732Z,1037.82637903
2018-09-27T00:08:44.610Z,1037.82637903
2018-09-27T00:08:57.648Z,1037.82637903
2018-09-27T00:09:10.470Z,1037.86024291
2018-09-27T00:09:23.294Z,1037.86024291
2018-09-27T00:09:36.104Z,1037.86024291
2018-09-27T00:09:48.954Z,1037.86024291
2018-09-27T00:10:01.842Z,1037.86024291
2018-09-27T00:10:14.671Z,1037.92797068
2018-09-27T00:10:27.923Z,1037.92797068
2018-09-27T00:10:40.738Z,1037.92797068
2018-09-27T00:10:53.574Z,1037.92797068
2018-09-27T00:11:06.415Z,1037.75865127
2018-09-27T00:11:19.254Z,1037.75865127
2018-09-27T00:11:32.085Z,1037.75865127
2018-09-27T00:11:44.911Z,1037.75865127
2018-09-27T00:11:57.864Z,1037.75865127
2018-09-27T00:12:10.700Z,1037.75865127
2018-09-27T00:12:23.585Z,1037.75865127
2018-09-27T00:12:36.526Z,1037.75865127
2018-09-27T00:12:49.408Z,1037.75865127
2018-09-27T00:13:02.231Z,1037.75865127
2018-09-27T00:13:15.053Z,1037.75865127
2018-09-27T00:13:27.865Z,1037.75865127
2018-09-27T00:13:40.688Z,1037.75865127
2018-09-27T00:13:53.531Z,1037.75865127
2018-09-27T00:14:06.337Z,1037.79251515
2018-09-27T00:14:19.154Z,1037.79251515
2018-09-27T00:14:31.969Z,1037.79251515
2018-09-27T00:14:44.785Z,1037.79251515
2018-09-27T00:14:57.659Z,1037.79251515
2018-09-27T00:15:10.482Z,1037.79251515
2018-09-27T00:15:23.428Z,1037.79251515
2018-09-27T00:15:36.242Z,1037.79251515
2018-09-27T00:15:49.068Z,1037.79251515
2018-09-27T00:16:01.961Z,1037.79251515
2018-09-27T00:16:14.813Z,1037.82637903
2018-09-27T00:16:27.649Z,1037.82637903
2018-09-27T00:16:40.495Z,1037.82637903
2018-09-27T00:16:53.328Z,1037.82637903
2018-09-27T00:17:06.157Z,1037.82637903
2018-09-27T00:17:19.041Z,1037.82637903
2018-09-27T00:17:31.906Z,1037.82637903
2018-09-27T00:17:44.755Z,1037.82637903
2018-09-27T00:17:57.597Z,1037.82637903
2018-09-27T00:18:10.417Z,1037.79251515
2018-09-27T00:18:23.259Z,1037.79251515
2018-09-27T00:18:36.433Z,1037.79251515
2018-09-27T00:18:49.273Z,1037.79251515
2018-09-27T00:19:02.082Z,1037.79251515
2018-09-27T00:19:14.976Z,1037.69092351
2018-09-27T00:19:28.158Z,1037.69092351
2018-09-27T00:19:42.121Z,1037.69092351
2018-09-27T00:19:55.188Z,1037.69092351
2018-09-27T00:20:08.034Z,1037.65705962
2018-09-27T00:20:20.903Z,1037.65705962
2018-09-27T00:20:33.764Z,1037.65705962
2018-09-27T00:20:46.591Z,1037.65705962
2018-09-27T00:20:59.439Z,1037.65705962
2018-09-27T00:21:12.277Z,1037.58933186
2018-09-27T00:21:25.393Z,1037.58933186
2018-09-27T00:21:38.221Z,1037.58933186
2018-09-27T00:21:51.081Z,1037.58933186
2018-09-27T00:22:03.916Z,1037.65705962
2018-09-27T00:22:16.774Z,1037.65705962
2018-09-27T00:22:29.633Z,1037.65705962
2018-09-27T00:22:42.549Z,1037.65705962
2018-09-27T00:22:55.525Z,1037.65705962
2018-09-27T00:23:08.421Z,1037.72478739
2018-09-27T00:23:21.247Z,1037.72478739
2018-09-27T00:23:34.196Z,1037.72478739
2018-09-27T00:23:47.388Z,1037.72478739
2018-09-27T00:24:00.240Z,1037.72478739
2018-09-27T00:24:13.074Z,1037.75865127
2018-09-27T00:24:25.952Z,1037.75865127
2018-09-27T00:24:38.975Z,1037.75865127
2018-09-27T00:24:51.812Z,1037.75865127
2018-09-27T00:25:04.685Z,1037.75865127
2018-09-27T00:25:17.500Z,1037.75865127
2018-09-27T00:25:30.340Z,1037.75865127
2018-09-27T00:25:43.172Z,1037.75865127
2018-09-27T00:25:55.987Z,1037.75865127
2018-09-27T00:26:08.812Z,1037.75865127
2018-09-27T00:26:21.661Z,1037.75865127
2018-09-27T00:26:34.505Z,1037.75865127
2018-09-27T00:26:47.329Z,1037.75865127
2018-09-27T00:27:00.212Z,1037.75865127
2018-09-27T00:27:13.263Z,1037.75865127
2018-09-27T00:27:26.130Z,1037.75865127
2018-09-27T00:27:39.019Z,1037.75865127
2018-09-27T00:27:52.106Z,1037.75865127
2018-09-27T00:28:04.999Z,1037.75865127
2018-09-27T00:28:17.884Z,1037.75865127
2018-09-27T00:28:30.776Z,1037.75865127
2018-09-27T00:28:43.681Z,1037.75865127
2018-09-27T00:28:56.590Z,1037.75865127
2018-09-27T00:29:09.491Z,1037.65705962
2018-09-27T00:29:22.419Z,1037.65705962
2018-09-27T00:29:35.317Z,1037.65705962
2018-09-27T00:29:48.220Z,1037.65705962
2018-09-27T00:30:01.199Z,1037.65705962
2018-09-27T00:30:14.103Z,1037.65705962
2018-09-27T00:30:27.018Z,1037.65705962
2018-09-27T00:30:39.923Z,1037.65705962
2018-09-27T00:30:52.825Z,1037.65705962
2018-09-27T00:31:05.704Z,1037.69092351
2018-09-27T00:31:18.644Z,1037.69092351
2018-09-27T00:31:31.541Z,1037.69092351
2018-09-27T00:31:44.461Z,1037.69092351
2018-09-27T00:31:57.358Z,1037.69092351
2018-09-27T00:32:10.301Z,1037.72478739
2018-09-27T00:32:23.248Z,1037.72478739
2018-09-27T00:32:36.141Z,1037.72478739
2018-09-27T00:32:49.079Z,1037.72478739
2018-09-27T00:33:01.962Z,1037.72478739
2018-09-27T00:33:15.843Z,1037.69092351
2018-09-27T00:33:28.693Z,1037.69092351
2018-09-27T00:33:41.579Z,1037.69092351
2018-09-27T00:33:54.418Z,1037.69092351
2018-09-27T00:34:07.235Z,1037.69092351
2018-09-27T00:34:20.068Z,1037.69092351
2018-09-27T00:34:32.891Z,1037.69092351
2018-09-27T00:34:45.755Z,1037.69092351
2018-09-27T00:34:58.591Z,1037.69092351
2018-09-27T00:35:11.419Z,1037.79251515
2018-09-27T00:35:24.305Z,1037.79251515
2018-09-27T00:35:37.196Z,1037.79251515
2018-09-27T00:35:50.034Z,1037.79251515
2018-09-27T00:36:02.872Z,1037.79251515
2018-09-27T00:36:15.720Z,1037.72478739
2018-09-27T00:36:28.580Z,1037.72478739
2018-09-27T00:36:41.411Z,1037.72478739
2018-09-27T00:36:54.230Z,1037.72478739
2018-09-27T00:37:07.065Z,1037.65705962
2018-09-27T00:37:19.876Z,1037.65705962
2018-09-27T00:37:32.701Z,1037.65705962
2018-09-27T00:37:45.530Z,1037.65705962
2018-09-27T00:37:58.351Z,1037.65705962
2018-09-27T00:38:11.812Z,1037.62319574
2018-09-27T00:38:24.717Z,1037.62319574
2018-09-27T00:38:37.543Z,1037.62319574
2018-09-27T00:38:50.392Z,1037.62319574
2018-09-27T00:39:03.217Z,1037.62319574
2018-09-27T00:39:16.037Z,1037.65705962
2018-09-27T00:39:28.835Z,1037.65705962
2018-09-27T00:39:42.263Z,1037.65705962
2018-09-27T00:39:55.080Z,1037.65705962
2018-09-27T00:40:07.906Z,1037.62319574
2018-09-27T00:40:20.758Z,1037.62319574
2018-09-27T00:40:33.580Z,1037.62319574
2018-09-27T00:40:46.386Z,1037.62319574
2018-09-27T00:40:59.237Z,1037.62319574
2018-09-27T00:41:12.052Z,1037.65705962
2018-09-27T00:41:24.865Z,1037.65705962
2018-09-27T00:41:37.706Z,1037.65705962
2018-09-27T00:41:50.536Z,1037.65705962
2018-09-27T00:42:03.357Z,1037.65705962
2018-09-27T00:42:16.194Z,1037.65705962
2018-09-27T00:42:29.181Z,1037.65705962
2018-09-27T00:42:42.029Z,1037.65705962
2018-09-27T00:42:54.860Z,1037.65705962
2018-09-27T00:43:07.724Z,1037.62319574
2018-09-27T00:43:20.551Z,1037.62319574
2018-09-27T00:43:33.370Z,1037.62319574
2018-09-27T00:43:46.449Z,1037.62319574
2018-09-27T00:43:59.270Z,1037.62319574
2018-09-27T00:44:12.088Z,1037.62319574
2018-09-27T00:44:24.891Z,1037.62319574
2018-09-27T00:44:37.719Z,1037.62319574
2018-09-27T00:44:50.533Z,1037.62319574
2018-09-27T00:45:03.367Z,1037.55546798
2018-09-27T00:45:16.199Z,1037.55546798
2018-09-27T00:45:29.033Z,1037.55546798
2018-09-27T00:45:41.849Z,1037.55546798
2018-09-27T00:45:54.688Z,1037.55546798
2018-09-27T00:46:07.502Z,1037.62319574
2018-09-27T00:46:20.333Z,1037.62319574
2018-09-27T00:46:33.146Z,1037.62319574
2018-09-27T00:46:45.957Z,1037.62319574
2018-09-27T00:46:58.772Z,1037.62319574
2018-09-27T00:47:11.605Z,1037.65705962
2018-09-27T00:47:24.574Z,1037.65705962
2018-09-27T00:47:37.395Z,1037.65705962
2018-09-27T00:47:50.234Z,1037.65705962
2018-09-27T00:48:03.051Z,1037.65705962
2018-09-27T00:48:15.882Z,1037.69092351
2018-09-27T00:48:29.076Z,1037.69092351
2018-09-27T00:48:41.901Z,1037.69092351
2018-09-27T00:48:54.749Z,1037.69092351
2018-09-27T00:49:07.584Z,1037.55546798
2018-09-27T00:49:20.436Z,1037.55546798
2018-09-27T00:49:33.430Z,1037.55546798
2018-09-27T00:49:46.275Z,1037.55546798
2018-09-27T00:49:59.079Z,1037.55546798
2018-09-27T00:50:11.915Z,1037.65705962
2018-09-27T00:50:24.743Z,1037.65705962
2018-09-27T00:50:37.822Z,1037.65705962
2018-09-27T00:50:50.624Z,1037.65705962
2018-09-27T00:51:03.437Z,1037.69092351
2018-09-27T00:51:16.238Z,1037.69092351
2018-09-27T00:51:29.034Z,1037.69092351
2018-09-27T00:51:41.985Z,1037.69092351
2018-09-27T00:51:54.795Z,1037.69092351
2018-09-27T00:52:07.588Z,1037.65705962
2018-09-27T00:52:20.391Z,1037.65705962
2018-09-27T00:52:33.194Z,1037.65705962
2018-09-27T00:52:46.023Z,1037.65705962
2018-09-27T00:52:58.824Z,1037.65705962
2018-09-27T00:53:11.700Z,1037.65705962
2018-09-27T00:53:24.508Z,1037.65705962
2018-09-27T00:53:37.371Z,1037.65705962
2018-09-27T00:53:50.176Z,1037.65705962
2018-09-27T00:54:02.992Z,1037.65705962
2018-09-27T00:54:15.813Z,1037.65705962
2018-09-27T00:54:28.619Z,1037.65705962
2018-09-27T00:54:41.428Z,1037.65705962
2018-09-27T00:54:54.240Z,1037.65705962
2018-09-27T00:55:07.038Z,1037.69092351
2018-09-27T00:55:19.850Z,1037.69092351
2018-09-27T00:55:32.665Z,1037.69092351
2018-09-27T00:55:45.481Z,1037.69092351
2018-09-27T00:55:58.279Z,1037.69092351
2018-09-27T00:56:11.094Z,1037.65705962
2018-09-27T00:56:23.908Z,1037.65705962
2018-09-27T00:56:36.722Z,1037.65705962
2018-09-27T00:56:49.540Z,1037.65705962
2018-09-27T00:57:02.526Z,1037.65705962
2018-09-27T00:57:15.331Z,1037.62319574
2018-09-27T00:57:28.166Z,1037.62319574
2018-09-27T00:57:40.981Z,1037.62319574
2018-09-27T00:57:53.831Z,1037.62319574
2018-09-27T00:58:06.748Z,1037.58933186
2018-09-27T00:58:19.639Z,1037.58933186
2018-09-27T00:58:32.530Z,1037.58933186
2018-09-27T00:58:45.419Z,1037.58933186
2018-09-27T00:58:58.319Z,1037.58933186
2018-09-27T00:59:11.206Z,1037.58933186
2018-09-27T00:59:24.093Z,1037.58933186
2018-09-27T00:59:36.992Z,1037.58933186
2018-09-27T00:59:49.816Z,1037.58933186
2018-09-27T01:00:02.627Z,1037.58933186
2018-09-27T01:00:15.443Z,1037.5216041
2018-09-27T01:00:28.263Z,1037.5216041
2018-09-27T01:00:41.116Z,1037.5216041
2018-09-27T01:00:53.959Z,1037.5216041
2018-09-27T01:01:07.279Z,1037.65705962
2018-09-27T01:01:20.128Z,1037.65705962
2018-09-27T01:01:32.953Z,1037.65705962
2018-09-27T01:01:45.785Z,1037.65705962
2018-09-27T01:01:58.595Z,1037.65705962
2018-09-27T01:02:11.424Z,1037.65705962
2018-09-27T01:02:24.239Z,1037.65705962
2018-09-27T01:02:37.080Z,1037.65705962
2018-09-27T01:02:49.900Z,1037.65705962
2018-09-27T01:03:02.726Z,1037.65705962
2018-09-27T01:03:15.541Z,1037.65705962
2018-09-27T01:03:28.356Z,1037.65705962
2018-09-27T01:03:41.266Z,1037.65705962
2018-09-27T01:03:54.077Z,1037.65705962
2018-09-27T01:04:06.870Z,1037.55546798
2018-09-27T01:04:19.679Z,1037.55546798
2018-09-27T01:04:32.500Z,1037.55546798
2018-09-27T01:04:45.358Z,1037.55546798
2018-09-27T01:04:58.178Z,1037.55546798
2018-09-27T01:05:11.008Z,1037.69092351
2018-09-27T01:05:23.826Z,1037.69092351
2018-09-27T01:05:36.640Z,1037.69092351
2018-09-27T01:05:49.474Z,1037.69092351
2018-09-27T01:06:02.294Z,1037.69092351
2018-09-27T01:06:15.138Z,1037.58933186
2018-09-27T01:06:27.958Z,1037.58933186
2018-09-27T01:06:40.794Z,1037.58933186
2018-09-27T01:06:53.624Z,1037.58933186
2018-09-27T01:07:06.489Z,1037.62319574
2018-09-27T01:07:19.337Z,1037.62319574
2018-09-27T01:07:32.171Z,1037.62319574
2018-09-27T01:07:45.018Z,1037.62319574
2018-09-27T01:07:57.855Z,1037.62319574
2018-09-27T01:08:10.729Z,1037.62319574
2018-09-27T01:08:23.548Z,1037.62319574
2018-09-27T01:08:36.391Z,1037.62319574
2018-09-27T01:08:49.304Z,1037.62319574
2018-09-27T01:09:02.327Z,1037.62319574
2018-09-27T01:09:15.172Z,1037.65705962
2018-09-27T01:09:28.036Z,1037.65705962
2018-09-27T01:09:40.879Z,1037.65705962
2018-09-27T01:09:53.723Z,1037.65705962
2018-09-27T01:10:06.576Z,1037.65705962
2018-09-27T01:10:19.654Z,1037.65705962
2018-09-27T01:10:32.497Z,1037.65705962
2018-09-27T01:10:45.318Z,1037.65705962
2018-09-27T01:10:58.140Z,1037.65705962
2018-09-27T01:11:10.964Z,1037.55546798
2018-09-27T01:11:23.776Z,1037.55546798
2018-09-27T01:11:36.603Z,1037.55546798
2018-09-27T01:11:49.675Z,1037.55546798
2018-09-27T01:12:02.516Z,1037.55546798
2018-09-27T01:12:15.362Z,1037.62319574
2018-09-27T01:12:28.441Z,1037.62319574
2018-09-27T01:12:41.531Z,1037.62319574
2018-09-27T01:12:54.381Z,1037.62319574
2018-09-27T01:13:07.221Z,1037.58933186
2018-09-27T01:13:20.050Z,1037.58933186
2018-09-27T01:13:32.858Z,1037.58933186
2018-09-27T01:13:45.729Z,1037.58933186
2018-09-27T01:13:58.804Z,1037.58933186
2018-09-27T01:14:11.648Z,1037.58933186
2018-09-27T01:14:24.477Z,1037.58933186
2018-09-27T01:14:37.350Z,1037.58933186
2018-09-27T01:14:50.173Z,1037.58933186
2018-09-27T01:15:02.987Z,1037.58933186
2018-09-27T01:15:15.824Z,1037.5216041
2018-09-27T01:15:28.668Z,1037.5216041
2018-09-27T01:15:41.516Z,1037.5216041
2018-09-27T01:15:54.351Z,1037.5216041
2018-09-27T01:16:07.359Z,1037.58933186
2018-09-27T01:16:20.204Z,1037.58933186
2018-09-27T01:16:33.092Z,1037.58933186
2018-09-27T01:16:45.921Z,1037.58933186
2018-09-27T01:16:58.798Z,1037.58933186
2018-09-27T01:17:11.681Z,1037.5216041
2018-09-27T01:17:24.501Z,1037.5216041
2018-09-27T01:17:37.377Z,1037.5216041
2018-09-27T01:17:50.240Z,1037.5216041
2018-09-27T01:18:03.106Z,1037.5216041
2018-09-27T01:18:15.992Z,1037.58933186
2018-09-27T01:18:28.818Z,1037.58933186
2018-09-27T01:18:41.661Z,1037.58933186
2018-09-27T01:18:54.518Z,1037.58933186
2018-09-27T01:19:07.347Z,1037.62319574
2018-09-27T01:19:20.178Z,1037.62319574
2018-09-27T01:19:33.025Z,1037.62319574
2018-09-27T01:19:45.847Z,1037.62319574
2018-09-27T01:19:58.675Z,1037.62319574
2018-09-27T01:20:11.492Z,1037.65705962
2018-09-27T01:20:24.364Z,1037.65705962
2018-09-27T01:20:37.191Z,1037.65705962
2018-09-27T01:20:50.012Z,1037.65705962
2018-09-27T01:21:02.824Z,1037.65705962
2018-09-27T01:21:16.145Z,1037.58933186
2018-09-27T01:21:28.959Z,1037.58933186
2018-09-27T01:21:41.976Z,1037.58933186
2018-09-27T01:21:54.805Z,1037.58933186
2018-09-27T01:22:07.643Z,1037.5216041
2018-09-27T01:22:20.464Z,1037.5216041
2018-09-27T01:22:33.297Z,1037.5216041
2018-09-27T01:22:46.120Z,1037.5216041
2018-09-27T01:22:59.139Z,1037.5216041
2018-09-27T01:23:12.103Z,1037.55546798
2018-09-27T01:23:24.963Z,1037.55546798
2018-09-27T01:23:37.821Z,1037.55546798
2018-09-27T01:23:50.854Z,1037.55546798
2018-09-27T01:24:03.690Z,1037.58933186
2018-09-27T01:24:16.509Z,1037.58933186
2018-09-27T01:24:29.535Z,1037.58933186
2018-09-27T01:24:42.357Z,1037.58933186
2018-09-27T01:24:55.218Z,1037.58933186
2018-09-27T01:25:08.069Z,1037.55546798
2018-09-27T01:25:20.897Z,1037.55546798
2018-09-27T01:25:33.715Z,1037.55546798
2018-09-27T01:25:46.532Z,1037.55546798
2018-09-27T01:25:59.350Z,1037.55546798
2018-09-27T01:26:12.159Z,1037.69092351
2018-09-27T01:26:24.969Z,1037.69092351
2018-09-27T01:26:37.804Z,1037.69092351
2018-09-27T01:26:50.650Z,1037.69092351
2018-09-27T01:27:03.696Z,1037.58933186
2018-09-27T01:27:16.515Z,1037.58933186
2018-09-27T01:27:29.352Z,1037.58933186
2018-09-27T01:27:42.212Z,1037.58933186
2018-09-27T01:27:55.261Z,1037.58933186
2018-09-27T01:28:08.145Z,1037.65705962
2018-09-27T01:28:20.983Z,1037.65705962
2018-09-27T01:28:33.815Z,1037.65705962
2018-09-27T01:28:46.660Z,1037.65705962
2018-09-27T01:28:59.507Z,1037.65705962
2018-09-27T01:29:12.356Z,1037.62319574
2018-09-27T01:29:25.267Z,1037.62319574
2018-09-27T01:29:38.111Z,1037.62319574
2018-09-27T01:29:50.938Z,1037.62319574
2018-09-27T01:30:03.757Z,1037.62319574
2018-09-27T01:30:16.585Z,1037.62319574
2018-09-27T01:30:29.510Z,1037.62319574
2018-09-27T01:30:42.373Z,1037.62319574
2018-09-27T01:30:55.249Z,1037.62319574
2018-09-27T01:31:08.095Z,1037.65705962
2018-09-27T01:31:20.937Z,1037.65705962
2018-09-27T01:31:33.757Z,1037.65705962
2018-09-27T01:31:46.621Z,1037.65705962
2018-09-27T01:31:59.457Z,1037.65705962
2018-09-27T01:32:12.304Z,1037.58933186
2018-09-27T01:32:25.146Z,1037.58933186
2018-09-27T01:32:37.998Z,1037.58933186
2018-09-27T01:32:50.835Z,1037.58933186
2018-09-27T01:33:03.985Z,1037.58933186
2018-09-27T01:33:17.016Z,1037.58933186
2018-09-27T01:33:30.003Z,1037.58933186
2018-09-27T01:33:42.829Z,1037.58933186
2018-09-27T01:33:55.666Z,1037.58933186
2018-09-27T01:34:08.515Z,1037.5216041
2018-09-27T01:34:21.353Z,1037.5216041
2018-09-27T01:34:34.200Z,1037.5216041
2018-09-27T01:34:47.052Z,1037.5216041
2018-09-27T01:34:59.877Z,1037.5216041
2018-09-27T01:35:12.714Z,1037.55546798
2018-09-27T01:35:25.533Z,1037.55546798
2018-09-27T01:35:38.361Z,1037.55546798
2018-09-27T01:35:51.171Z,1037.55546798
2018-09-27T01:36:03.997Z,1037.58933186
2018-09-27T01:36:16.840Z,1037.58933186
2018-09-27T01:36:29.683Z,1037.58933186
2018-09-27T01:36:42.504Z,1037.58933186
2018-09-27T01:36:55.346Z,1037.58933186
2018-09-27T01:37:08.162Z,1037.5216041
2018-09-27T01:37:20.975Z,1037.5216041
2018-09-27T01:37:33.788Z,1037.5216041
2018-09-27T01:37:46.616Z,1037.5216041
2018-09-27T01:37:59.448Z,1037.5216041
2018-09-27T01:38:12.728Z,1037.5216041
2018-09-27T01:38:25.572Z,1037.5216041
2018-09-27T01:38:38.606Z,1037.5216041
2018-09-27T01:38:51.431Z,1037.5216041
2018-09-27T01:39:04.259Z,1037.48774022
2018-09-27T01:39:17.092Z,1037.48774022
2018-09-27T01:39:29.931Z,1037.48774022
2018-09-27T01:39:43.470Z,1037.48774022
2018-09-27T01:39:56.300Z,1037.48774022
2018-09-27T01:40:09.107Z,1037.55546798
2018-09-27T01:40:22.243Z,1037.55546798
2018-09-27T01:40:35.080Z,1037.55546798
2018-09-27T01:40:48.064Z,1037.55546798
2018-09-27T01:41:00.884Z,1037.55546798
2018-09-27T01:41:13.722Z,1037.5216041
2018-09-27T01:41:26.550Z,1037.5216041
2018-09-27T01:41:39.391Z,1037.5216041
2018-09-27T01:41:52.217Z,1037.5216041
2018-09-27T01:42:05.096Z,1037.48774022
2018-09-27T01:42:17.917Z,1037.48774022
2018-09-27T01:42:31.032Z,1037.48774022
2018-09-27T01:42:43.858Z,1037.48774022
2018-09-27T01:42:56.725Z,1037.48774022
2018-09-27T01:43:09.608Z,1037.5216041
2018-09-27T01:43:22.472Z,1037.5216041
2018-09-27T01:43:35.334Z,1037.5216041
2018-09-27T01:43:48.193Z,1037.5216041
2018-09-27T01:44:01.426Z,1037.5216041
2018-09-27T01:44:14.313Z,1037.5216041
2018-09-27T01:44:27.402Z,1037.5216041
2018-09-27T01:44:40.243Z,1037.5216041
2018-09-27T01:44:53.228Z,1037.5216041
2018-09-27T01:45:06.052Z,1037.45387634
2018-09-27T01:45:18.885Z,1037.45387634
2018-09-27T01:45:31.738Z,1037.45387634
2018-09-27T01:45:44.581Z,1037.45387634
2018-09-27T01:45:57.400Z,1037.45387634
2018-09-27T01:46:10.235Z,1037.55546798
2018-09-27T01:46:23.076Z,1037.55546798
2018-09-27T01:46:35.897Z,1037.55546798
2018-09-27T01:46:49.011Z,1037.55546798
2018-09-27T01:47:02.162Z,1037.55546798
2018-09-27T01:47:15.945Z,1037.5216041
2018-09-27T01:47:28.869Z,1037.5216041
2018-09-27T01:47:41.731Z,1037.5216041
2018-09-27T01:47:54.590Z,1037.5216041
2018-09-27T01:48:07.417Z,1037.48774022
2018-09-27T01:48:20.250Z,1037.48774022
2018-09-27T01:48:33.360Z,1037.48774022
2018-09-27T01:48:46.211Z,1037.48774022
2018-09-27T01:48:59.034Z,1037.48774022
2018-09-27T01:49:11.879Z,1037.55546798
2018-09-27T01:49:24.918Z,1037.55546798
2018-09-27T01:49:37.801Z,1037.55546798
2018-09-27T01:49:50.625Z,1037.55546798
2018-09-27T01:50:03.439Z,1037.58933186
2018-09-27T01:50:16.294Z,1037.58933186
2018-09-27T01:50:29.675Z,1037.58933186
2018-09-27T01:50:42.528Z,1037.58933186
2018-09-27T01:50:55.371Z,1037.58933186
2018-09-27T01:51:08.262Z,1037.55546798
2018-09-27T01:51:21.162Z,1037.55546798
2018-09-27T01:51:34.097Z,1037.55546798
2018-09-27T01:51:46.926Z,1037.55546798
2018-09-27T01:51:59.767Z,1037.55546798
2018-09-27T01:52:12.598Z,1037.55546798
2018-09-27T01:52:25.436Z,1037.55546798
2018-09-27T01:52:38.258Z,1037.55546798
2018-09-27T01:52:51.100Z,1037.55546798
2018-09-27T01:53:03.943Z,1037.58933186
2018-09-27T01:53:16.805Z,1037.58933186
2018-09-27T01:53:29.625Z,1037.58933186
2018-09-27T01:53:42.436Z,1037.58933186
2018-09-27T01:53:55.278Z,1037.58933186
2018-09-27T01:54:08.106Z,1037.62319574
2018-09-27T01:54:20.923Z,1037.62319574
2018-09-27T01:54:33.794Z,1037.62319574
2018-09-27T01:54:46.604Z,1037.62319574
2018-09-27T01:54:59.421Z,1037.62319574
2018-09-27T01:55:12.284Z,1037.65705962
2018-09-27T01:55:25.108Z,1037.65705962
2018-09-27T01:55:37.999Z,1037.65705962
2018-09-27T01:55:50.849Z,1037.65705962
2018-09-27T01:56:03.697Z,1037.58933186
2018-09-27T01:56:16.549Z,1037.58933186
2018-09-27T01:56:29.438Z,1037.58933186
2018-09-27T01:56:42.295Z,1037.58933186
2018-09-27T01:56:55.142Z,1037.58933186
2018-09-27T01:57:07.992Z,1037.69092351
2018-09-27T01:57:20.832Z,1037.69092351
2018-09-27T01:57:33.672Z,1037.69092351
2018-09-27T01:57:46.518Z,1037.69092351
2018-09-27T01:57:59.417Z,1037.69092351
2018-09-27T01:58:12.242Z,1037.58933186
2018-09-27T01:58:25.068Z,1037.58933186
2018-09-27T01:58:37.909Z,1037.58933186
2018-09-27T01:58:50.756Z,1037.58933186
2018-09-27T01:59:03.623Z,1037.58933186
2018-09-27T01:59:16.472Z,1037.58933186
2018-09-27T01:59:29.398Z,1037.58933186
2018-09-27T01:59:42.495Z,1037.58933186
2018-09-27T01:59:55.308Z,1037.58933186
2018-09-27T02:00:08.130Z,1037.62319574
2018-09-27T02:00:20.958Z,1037.62319574
2018-09-27T02:00:33.869Z,1037.62319574
2018-09-27T02:00:46.732Z,1037.62319574
2018-09-27T02:00:59.673Z,1037.62319574
2018-09-27T02:01:12.519Z,1037.48774022
2018-09-27T02:01:25.357Z,1037.48774022
2018-09-27T02:01:38.195Z,1037.48774022
2018-09-27T02:01:51.050Z,1037.48774022
2018-09-27T02:02:03.909Z,1037.5216041
2018-09-27T02:02:16.772Z,1037.5216041
2018-09-27T02:02:29.637Z,1037.5216041
2018-09-27T02:02:42.501Z,1037.5216041
2018-09-27T02:02:55.334Z,1037.5216041
2018-09-27T02:03:08.149Z,1037.5216041
2018-09-27T02:03:20.987Z,1037.5216041
2018-09-27T02:03:33.824Z,1037.5216041
2018-09-27T02:03:46.812Z,1037.5216041
2018-09-27T02:03:59.657Z,1037.5216041
2018-09-27T02:04:12.549Z,1037.5216041
2018-09-27T02:04:25.409Z,1037.5216041
2018-09-27T02:04:38.244Z,1037.5216041
2018-09-27T02:04:51.078Z,1037.5216041
2018-09-27T02:05:04.101Z,1037.58933186
2018-09-27T02:05:16.931Z,1037.58933186
2018-09-27T02:05:29.773Z,1037.58933186
2018-09-27T02:05:42.613Z,1037.58933186
2018-09-27T02:05:55.451Z,1037.58933186
2018-09-27T02:06:08.303Z,1037.62319574
2018-09-27T02:06:21.135Z,1037.62319574
2018-09-27T02:06:33.968Z,1037.62319574
2018-09-27T02:06:46.800Z,1037.62319574
2018-09-27T02:06:59.654Z,1037.62319574
2018-09-27T02:07:12.496Z,1037.55546798
2018-09-27T02:07:25.315Z,1037.55546798
2018-09-27T02:07:38.151Z,1037.55546798
2018-09-27T02:07:50.996Z,1037.55546798
2018-09-27T02:08:04.004Z,1037.65705962
2018-09-27T02:08:16.840Z,1037.65705962
2018-09-27T02:08:29.686Z,1037.65705962
2018-09-27T02:08:42.533Z,1037.65705962
2018-09-27T02:08:55.723Z,1037.65705962
2018-09-27T02:09:08.609Z,1037.55546798
2018-09-27T02:09:21.492Z,1037.55546798
2018-09-27T02:09:34.340Z,1037.55546798
2018-09-27T02:09:47.170Z,1037.55546798
2018-09-27T02:09:59.991Z,1037.55546798
2018-09-27T02:10:12.857Z,1037.55546798
2018-09-27T02:10:25.941Z,1037.55546798
2018-09-27T02:10:38.781Z,1037.55546798
2018-09-27T02:10:51.692Z,1037.55546798
2018-09-27T02:11:04.531Z,1037.5216041
2018-09-27T02:11:17.426Z,1037.5216041
2018-09-27T02:11:30.270Z,1037.5216041
2018-09-27T02:11:43.106Z,1037.5216041
2018-09-27T02:11:56.592Z,1037.5216041
2018-09-27T02:12:09.423Z,1037.45387634